createdAt,value
2022-11-04T00:00:10.820Z,6.53
2022-11-04T00:02:37.369Z,6.93
2022-11-04T00:05:04.087Z,6.72
2022-11-04T00:07:49.105Z,6.32
2022-11-04T00:10:15.503Z,6.20
2022-11-04T00:12:41.916Z,7.22
2022-11-04T00:15:26.892Z,6.72
2022-11-04T00:17:53.333Z,5.80
2022-11-04T00:20:38.201Z,6.43
2022-11-04T00:23:23.085Z,6.00
2022-11-04T00:26:07.959Z,6.60
2022-11-04T00:28:43.070Z,6.07
2022-11-04T00:31:28.643Z,6.82
2022-11-04T00:33:58.198Z,7.50
2022-11-04T00:36:26.081Z,6.57
2022-11-04T00:38:52.642Z,6.10
2022-11-04T00:41:28.807Z,6.65
2022-11-04T00:44:01.179Z,6.80
2022-11-04T00:46:29.250Z,6.82
2022-11-04T00:48:56.073Z,6.32
2022-11-04T00:51:22.716Z,6.75
2022-11-04T00:53:49.899Z,6.18
2022-11-04T00:56:16.855Z,6.60
2022-11-04T00:58:43.581Z,6.60
2022-11-04T01:01:18.148Z,5.15
2022-11-04T01:03:50.216Z,6.07
2022-11-04T01:06:17.720Z,6.63
2022-11-04T01:08:44.321Z,6.30
2022-11-04T01:11:12.605Z,6.70
2022-11-04T01:13:39.893Z,6.20
2022-11-04T01:16:08.758Z,5.43
2022-11-04T01:18:35.947Z,5.88
2022-11-04T01:21:05.136Z,6.18
2022-11-04T01:23:31.701Z,6.10
2022-11-04T01:25:58.131Z,6.32
2022-11-04T01:28:24.523Z,6.47
2022-11-04T01:30:50.984Z,6.82
2022-11-04T01:33:17.605Z,6.10
2022-11-04T01:35:44.086Z,6.03
2022-11-04T01:38:11.255Z,4.95
2022-11-04T01:40:39.988Z,4.68
2022-11-04T01:45:39.745Z,4.93
2022-11-04T01:48:17.460Z,4.80
2022-11-04T01:50:44.031Z,4.22
2022-11-04T01:53:15.951Z,3.60
2022-11-04T01:55:52.708Z,3.60
2022-11-04T01:58:23.189Z,3.53
2022-11-04T02:00:50.014Z,2.90
2022-11-04T02:03:34.279Z,2.85
2022-11-04T02:06:02.446Z,2.70
2022-11-04T02:08:29.880Z,2.45
2022-11-04T02:11:02.182Z,2.60
2022-11-04T02:13:31.776Z,2.33
2022-11-04T02:16:16.380Z,2.72
2022-11-04T02:19:18.206Z,1.65
2022-11-04T02:22:14.009Z,1.90
2022-11-04T02:25:01.649Z,2.03
2022-11-04T02:27:37.800Z,2.10
2022-11-04T02:30:16.731Z,2.20
2022-11-04T02:33:10.915Z,2.22
2022-11-04T02:35:49.526Z,1.50
2022-11-04T02:38:26.971Z,1.88
2022-11-04T02:41:25.365Z,1.40
2022-11-04T02:44:19.281Z,1.50
2022-11-04T02:46:57.360Z,1.55
2022-11-04T02:49:32.698Z,1.70
2022-11-04T02:52:06.002Z,1.52
2022-11-04T02:54:55.499Z,1.60
2022-11-04T02:57:28.929Z,1.40
2022-11-04T03:00:01.448Z,1.40
2022-11-04T03:02:38.000Z,1.83
2022-11-04T03:05:08.348Z,1.38
2022-11-04T03:07:37.943Z,1.77
2022-11-04T03:10:18.978Z,1.50
2022-11-04T03:12:58.384Z,1.20
2022-11-04T03:15:28.890Z,1.52
2022-11-04T03:18:16.412Z,1.33
2022-11-04T03:20:46.283Z,0.88
2022-11-04T03:23:13.570Z,1.17
2022-11-04T03:25:44.747Z,1.42
2022-11-04T03:28:25.405Z,1.13
2022-11-04T03:30:55.739Z,1.40
2022-11-04T03:33:25.241Z,1.30
2022-11-04T03:35:52.623Z,1.38
2022-11-04T03:38:21.313Z,1.30
2022-11-04T03:40:47.805Z,1.27
2022-11-04T03:43:20.097Z,1.10
2022-11-04T03:48:23.881Z,1.30
2022-11-04T03:50:51.197Z,1.30
2022-11-04T03:53:22.524Z,1.30
2022-11-04T03:56:14.513Z,1.10
2022-11-04T03:59:10.586Z,1.05
2022-11-04T04:01:46.065Z,1.15
2022-11-04T04:04:19.628Z,1.02
2022-11-04T04:06:46.718Z,1.20
2022-11-04T04:09:39.478Z,1.40
2022-11-04T04:12:26.203Z,1.08
2022-11-04T04:14:56.378Z,0.98
2022-11-04T04:17:45.299Z,1.30
2022-11-04T04:20:33.930Z,1.40
2022-11-04T04:23:24.715Z,1.20
2022-11-04T04:26:12.389Z,1.38
2022-11-04T04:28:40.226Z,1.40
2022-11-04T04:31:09.733Z,1.10
2022-11-04T04:33:36.198Z,1.60
2022-11-04T04:36:02.920Z,1.33
2022-11-04T04:38:51.175Z,1.30
2022-11-04T04:41:40.065Z,1.20
2022-11-04T04:44:36.976Z,1.48
2022-11-04T04:47:04.605Z,1.20
2022-11-04T04:49:35.148Z,1.30
2022-11-04T04:52:08.031Z,1.45
2022-11-04T04:54:34.414Z,1.40
2022-11-04T04:57:00.802Z,2.13
2022-11-04T04:59:27.301Z,1.33
2022-11-04T05:01:53.780Z,1.10
2022-11-04T05:04:20.327Z,1.70
2022-11-04T05:06:46.711Z,1.20
2022-11-04T05:09:13.111Z,1.42
2022-11-04T05:11:39.549Z,1.38
2022-11-04T05:14:05.974Z,1.20
2022-11-04T05:16:35.465Z,1.65
2022-11-04T05:19:05.962Z,1.48
2022-11-04T05:21:32.523Z,1.63
2022-11-04T05:23:58.914Z,1.20
2022-11-04T05:26:25.378Z,1.73
2022-11-04T05:28:51.790Z,1.40
2022-11-04T05:31:18.470Z,1.25
2022-11-04T05:33:44.876Z,1.40
2022-11-04T05:36:13.611Z,1.52
2022-11-04T05:38:40.538Z,1.33
2022-11-04T05:41:09.052Z,1.30
2022-11-04T05:46:01.938Z,1.40
2022-11-04T05:48:28.601Z,1.88
2022-11-04T05:50:55.567Z,1.83
2022-11-04T05:53:22.136Z,1.42
2022-11-04T05:55:48.611Z,1.50
2022-11-04T05:58:15.094Z,1.70
2022-11-04T06:00:41.518Z,1.20
2022-11-04T06:03:10.729Z,1.83
2022-11-04T06:05:40.066Z,1.50
2022-11-04T06:08:06.776Z,1.83
2022-11-04T06:10:33.401Z,1.75
2022-11-04T06:12:59.846Z,1.25
2022-11-04T06:15:26.334Z,1.50
2022-11-04T06:17:52.795Z,1.52
2022-11-04T06:20:19.206Z,1.52
2022-11-04T06:22:45.621Z,1.50
2022-11-04T06:25:12.126Z,1.55
2022-11-04T06:27:38.498Z,1.10
2022-11-04T06:30:05.482Z,1.38
2022-11-04T06:32:31.913Z,1.30
2022-11-04T06:34:58.338Z,1.30
2022-11-04T06:37:24.744Z,1.15
2022-11-04T06:39:51.114Z,1.15
2022-11-04T06:42:17.575Z,1.35
2022-11-04T06:44:43.977Z,1.10
2022-11-04T06:47:10.546Z,1.15
2022-11-04T06:49:36.927Z,1.17
2022-11-04T06:52:03.493Z,1.08
2022-11-04T06:54:30.051Z,1.00
2022-11-04T06:56:56.467Z,1.08
2022-11-04T06:59:24.002Z,1.00
2022-11-04T07:01:51.914Z,0.90
2022-11-04T07:04:19.418Z,1.10
2022-11-04T07:06:46.152Z,1.05
2022-11-04T07:09:14.388Z,1.10
2022-11-04T07:11:42.507Z,1.00
2022-11-04T07:14:09.902Z,1.05
2022-11-04T07:16:36.878Z,1.20
2022-11-04T07:19:03.712Z,1.00
2022-11-04T07:21:30.283Z,0.80
2022-11-04T07:23:56.730Z,0.90
2022-11-04T07:26:23.135Z,0.95
2022-11-04T07:28:49.774Z,1.10
2022-11-04T07:31:18.000Z,1.10
2022-11-04T07:33:49.696Z,1.10
2022-11-04T07:36:17.153Z,2.15
2022-11-04T07:38:43.742Z,1.10
2022-11-04T07:41:10.182Z,1.20
2022-11-04T07:43:36.566Z,1.50
2022-11-04T07:46:05.969Z,1.60
2022-11-04T07:48:32.802Z,1.48
2022-11-04T07:51:00.381Z,1.23
2022-11-04T07:53:27.957Z,1.23
2022-11-04T07:55:54.404Z,2.17
2022-11-04T07:58:21.353Z,3.22
2022-11-04T08:00:48.000Z,1.40
2022-11-04T08:03:14.506Z,1.52
2022-11-04T08:05:41.002Z,1.88
2022-11-04T08:08:07.738Z,2.20
2022-11-04T08:10:34.442Z,1.67
2022-11-04T08:13:00.845Z,1.63
2022-11-04T08:15:29.127Z,1.63
2022-11-04T08:17:55.578Z,2.15
2022-11-04T08:20:22.004Z,1.70
2022-11-04T08:22:48.431Z,1.95
2022-11-04T08:25:14.935Z,1.92
2022-11-04T08:27:41.346Z,1.88
2022-11-04T08:30:08.831Z,1.58
2022-11-04T08:32:35.423Z,1.75
2022-11-04T08:35:01.853Z,1.20
2022-11-04T08:37:28.271Z,1.50
2022-11-04T08:39:54.664Z,1.80
2022-11-04T08:42:21.071Z,1.85
2022-11-04T08:44:51.561Z,1.33
2022-11-04T08:47:18.448Z,1.70
2022-11-04T08:49:44.846Z,1.85
2022-11-04T08:52:11.352Z,1.88
2022-11-04T08:54:37.758Z,1.60
2022-11-04T08:57:04.387Z,2.20
2022-11-04T08:59:30.799Z,1.58
2022-11-04T09:01:57.400Z,1.80
2022-11-04T09:04:24.014Z,1.80
2022-11-04T09:06:52.113Z,1.90
2022-11-04T09:09:19.013Z,1.70
2022-11-04T09:11:46.464Z,2.58
2022-11-04T09:14:13.709Z,1.75
2022-11-04T09:16:41.754Z,1.85
2022-11-04T09:19:08.559Z,1.63
2022-11-04T09:21:35.111Z,1.88
2022-11-04T09:24:01.632Z,1.70
2022-11-04T09:26:28.553Z,2.70
2022-11-04T09:28:56.113Z,1.85
2022-11-04T09:31:23.809Z,1.70
2022-11-04T09:33:50.911Z,1.70
2022-11-04T09:36:17.589Z,1.90
2022-11-04T09:38:45.233Z,1.80
2022-11-04T09:41:42.279Z,2.20
2022-11-04T09:44:14.836Z,1.80
2022-11-04T09:46:42.281Z,1.60
2022-11-04T09:49:12.729Z,2.00
2022-11-04T09:51:56.954Z,1.80
2022-11-04T09:54:27.138Z,1.80
2022-11-04T09:56:57.798Z,2.00
2022-11-04T09:59:28.668Z,1.80
2022-11-04T10:02:02.372Z,1.80
2022-11-04T10:04:44.056Z,1.90
2022-11-04T10:07:17.346Z,1.58
2022-11-04T10:10:08.274Z,1.77
2022-11-04T10:13:13.394Z,2.00
2022-11-04T10:16:18.420Z,1.38
2022-11-04T10:18:50.212Z,1.80
2022-11-04T10:21:35.980Z,1.60
2022-11-04T10:24:18.294Z,1.27
2022-11-04T10:27:00.670Z,1.50
2022-11-04T10:29:34.174Z,2.40
2022-11-04T10:32:03.783Z,1.83
2022-11-04T10:34:56.344Z,2.03
2022-11-04T10:37:26.637Z,1.23
2022-11-04T10:40:01.181Z,1.52
2022-11-04T10:42:27.622Z,1.63
2022-11-04T10:44:56.465Z,1.40
2022-11-04T10:47:42.516Z,2.50
2022-11-04T10:50:37.898Z,1.45
2022-11-04T10:53:23.109Z,1.50
2022-11-04T10:56:04.782Z,2.00
2022-11-04T10:58:37.417Z,1.60
2022-11-04T11:01:26.081Z,1.85
2022-11-04T11:03:52.922Z,1.77
2022-11-04T11:06:29.823Z,1.73
2022-11-04T11:09:12.987Z,1.48
2022-11-04T11:11:47.498Z,1.77
2022-11-04T11:14:30.515Z,1.50
2022-11-04T11:17:17.261Z,1.40
2022-11-04T11:20:05.855Z,1.52
2022-11-04T11:22:38.267Z,1.52
2022-11-04T11:25:42.432Z,1.58
2022-11-04T11:28:21.370Z,1.40
2022-11-04T11:30:47.714Z,1.45
2022-11-04T11:33:18.609Z,1.40
2022-11-04T11:35:56.363Z,1.67
2022-11-04T11:38:30.808Z,1.35
2022-11-04T11:41:24.256Z,1.30
2022-11-04T11:43:53.877Z,1.20
2022-11-04T11:46:26.104Z,1.30
2022-11-04T11:48:57.674Z,1.40
2022-11-04T11:51:31.692Z,1.52
2022-11-04T11:54:15.378Z,1.27
2022-11-04T11:57:12.109Z,1.40
2022-11-04T12:02:53.969Z,1.63
2022-11-04T12:11:32.781Z,1.10
2022-11-04T12:14:13.779Z,1.20
2022-11-04T12:16:58.904Z,1.58
2022-11-04T12:19:45.140Z,1.90
2022-11-04T12:22:27.011Z,2.10
2022-11-04T12:25:05.473Z,2.40
2022-11-04T12:27:43.663Z,1.80
2022-11-04T12:30:22.315Z,1.80
2022-11-04T12:33:21.135Z,1.00
2022-11-04T12:35:53.547Z,0.95
2022-11-04T12:38:56.846Z,2.38
2022-11-04T12:42:06.458Z,2.30
2022-11-04T12:44:34.485Z,1.65
2022-11-04T12:47:13.889Z,1.90
2022-11-04T12:50:18.908Z,1.80
2022-11-04T12:53:10.774Z,1.35
2022-11-04T12:56:04.948Z,1.52
2022-11-04T12:58:31.388Z,1.73
2022-11-04T13:01:03.462Z,1.50
2022-11-04T13:03:41.396Z,2.15
2022-11-04T13:06:18.179Z,1.30
2022-11-04T13:08:52.705Z,1.70
2022-11-04T13:11:24.912Z,1.27
2022-11-04T13:14:21.215Z,1.33
2022-11-04T13:16:51.727Z,2.08
2022-11-04T13:19:31.530Z,2.17
2022-11-04T13:22:02.761Z,4.30
2022-11-04T13:24:32.978Z,1.73
2022-11-04T13:27:03.164Z,1.52
2022-11-04T13:29:34.412Z,1.77
2022-11-04T13:32:21.036Z,1.20
2022-11-04T13:34:57.344Z,1.80
2022-11-04T13:37:33.825Z,1.77
2022-11-04T13:40:10.494Z,1.90
2022-11-04T13:43:37.502Z,6.63
2022-11-04T13:46:16.516Z,5.57
2022-11-04T13:49:12.167Z,9.23
2022-11-04T13:51:38.570Z,8.85
2022-11-04T13:54:06.556Z,8.77
2022-11-04T13:56:41.017Z,5.43
2022-11-04T13:59:34.252Z,4.93
2022-11-04T14:02:37.808Z,4.72
2022-11-04T14:05:34.520Z,7.75
2022-11-04T14:08:01.061Z,4.03
2022-11-04T14:10:49.619Z,6.80
2022-11-04T14:13:31.575Z,11.48
2022-11-04T14:16:17.646Z,6.78
2022-11-04T14:18:46.878Z,4.45
2022-11-04T14:21:15.882Z,6.78
2022-11-04T14:23:46.040Z,3.38
2022-11-04T14:26:18.432Z,4.85
2022-11-04T14:28:47.970Z,6.30
2022-11-04T14:31:33.831Z,5.13
2022-11-04T14:34:01.227Z,5.60
2022-11-04T14:36:35.331Z,4.95
2022-11-04T14:39:12.715Z,4.78
2022-11-04T14:41:57.501Z,6.90
2022-11-04T14:44:31.796Z,5.85
2022-11-04T14:47:25.614Z,4.55
2022-11-04T14:49:58.136Z,3.50
2022-11-04T14:52:40.616Z,3.30
2022-11-04T14:55:29.674Z,2.58
2022-11-04T14:58:00.652Z,7.30
2022-11-04T15:00:34.234Z,5.88
2022-11-04T15:03:03.981Z,2.58
2022-11-04T15:05:33.353Z,2.00
2022-11-04T15:07:59.852Z,3.85
2022-11-04T15:10:28.224Z,4.60
2022-11-04T15:13:01.067Z,4.20
2022-11-04T15:15:44.411Z,3.90
2022-11-04T15:18:28.122Z,3.30
2022-11-04T15:21:03.105Z,3.33
2022-11-04T15:24:04.812Z,5.05
2022-11-04T15:42:51.087Z,3.67
2022-11-04T15:45:26.502Z,5.45
2022-11-04T15:48:26.783Z,3.90
2022-11-04T15:51:03.100Z,2.33
2022-11-04T15:53:29.584Z,2.67
2022-11-04T15:55:56.225Z,2.38
2022-11-04T15:58:22.749Z,4.22
2022-11-04T16:00:54.687Z,5.88
2022-11-04T16:03:24.132Z,4.63
2022-11-04T16:06:05.278Z,4.30
2022-11-04T16:08:32.419Z,10.75
2022-11-04T16:11:18.753Z,16.75
2022-11-04T16:13:46.325Z,10.30
2022-11-04T16:16:27.045Z,8.13
2022-11-04T16:19:00.241Z,8.05
2022-11-04T16:21:32.113Z,5.15
2022-11-04T16:24:20.555Z,5.68
2022-11-04T16:26:48.119Z,4.00
2022-11-04T16:29:25.607Z,3.55
2022-11-04T16:32:26.745Z,3.35
2022-11-04T16:34:57.233Z,4.53
2022-11-04T16:37:25.616Z,4.28
2022-11-04T16:39:52.157Z,13.77
2022-11-04T16:42:18.898Z,6.55
2022-11-04T16:44:48.183Z,7.18
2022-11-04T16:47:14.585Z,4.38
2022-11-04T16:49:41.196Z,4.20
2022-11-04T16:52:15.203Z,5.57
2022-11-04T16:54:41.648Z,10.00
2022-11-04T16:57:11.817Z,13.00
2022-11-04T16:59:38.281Z,8.40
2022-11-04T17:02:25.420Z,8.32
2022-11-04T17:04:52.052Z,7.05
2022-11-04T17:07:30.386Z,5.13
2022-11-04T17:10:20.915Z,5.60
2022-11-04T17:12:47.854Z,6.15
2022-11-04T17:15:15.700Z,6.50
2022-11-04T17:17:42.891Z,7.20
2022-11-04T17:20:13.924Z,7.00
2022-11-04T17:22:43.673Z,6.03
2022-11-04T17:25:22.410Z,8.65
2022-11-04T17:27:49.239Z,8.90
2022-11-04T17:30:18.755Z,4.65
2022-11-04T17:32:46.745Z,4.35
2022-11-04T17:35:14.404Z,5.80
2022-11-04T17:37:41.032Z,6.93
2022-11-04T17:40:09.196Z,8.57
2022-11-04T17:42:54.354Z,8.82
2022-11-04T17:45:20.753Z,8.00
2022-11-04T17:47:47.199Z,7.85
2022-11-04T17:50:13.852Z,8.02
2022-11-04T17:52:42.153Z,7.20
2022-11-04T17:55:15.464Z,6.93
2022-11-04T17:57:43.257Z,7.13
2022-11-04T18:00:10.535Z,6.45
2022-11-04T18:02:38.692Z,7.25
2022-11-04T18:05:05.591Z,6.88
2022-11-04T18:07:31.981Z,8.13
2022-11-04T18:09:58.402Z,6.78
2022-11-04T18:12:37.411Z,6.68
2022-11-04T18:15:17.247Z,6.18
2022-11-04T18:17:46.187Z,5.07
2022-11-04T18:20:15.390Z,5.45
2022-11-04T18:22:43.033Z,4.68
2022-11-04T18:25:10.287Z,4.57
2022-11-04T18:27:36.887Z,8.95
2022-11-04T18:30:03.620Z,12.75
2022-11-04T18:32:29.995Z,8.57
2022-11-04T18:34:56.407Z,12.07
2022-11-04T18:37:23.853Z,15.57
2022-11-04T18:39:50.247Z,10.77
2022-11-04T18:42:16.690Z,8.48
2022-11-04T18:44:43.145Z,6.40
2022-11-04T18:47:10.745Z,7.88
2022-11-04T18:49:37.163Z,5.78
2022-11-04T18:52:03.721Z,5.63
2022-11-04T18:54:30.318Z,3.95
2022-11-04T18:56:56.741Z,4.22
2022-11-04T18:59:23.135Z,4.43
2022-11-04T19:01:51.621Z,4.97
2022-11-04T19:06:45.374Z,4.40
2022-11-04T19:09:45.650Z,3.97
2022-11-04T19:12:21.878Z,4.30
2022-11-04T19:14:48.276Z,4.20
2022-11-04T19:17:14.948Z,4.63
2022-11-04T19:19:42.819Z,4.35
2022-11-04T19:22:10.113Z,4.95
2022-11-04T19:24:36.770Z,4.43
2022-11-04T19:27:03.368Z,4.95
2022-11-04T19:29:30.070Z,4.13
2022-11-04T19:31:56.591Z,5.60
2022-11-04T19:34:23.038Z,7.30
2022-11-04T19:36:49.417Z,10.43
2022-11-04T19:39:15.846Z,8.52
2022-11-04T19:42:00.983Z,8.23
2022-11-04T19:44:27.454Z,7.93
2022-11-04T19:46:53.998Z,7.32
2022-11-04T19:49:20.654Z,7.00
2022-11-04T19:51:47.321Z,7.90
2022-11-04T19:54:13.739Z,7.55
2022-11-04T19:56:40.273Z,7.25
2022-11-04T19:59:09.065Z,7.32
2022-11-04T20:01:38.444Z,6.75
2022-11-04T20:04:05.187Z,7.38
2022-11-04T20:06:33.056Z,7.50
2022-11-04T20:09:04.200Z,6.47
2022-11-04T20:11:31.467Z,6.03
2022-11-04T20:13:59.284Z,6.47
2022-11-04T20:16:32.303Z,5.70
2022-11-04T20:19:01.316Z,5.53
2022-11-04T20:21:34.617Z,5.40
2022-11-04T20:24:07.179Z,4.88
2022-11-04T20:26:35.926Z,5.75
2022-11-04T20:29:03.864Z,9.50
2022-11-04T20:31:33.191Z,5.90
2022-11-04T20:34:04.666Z,5.70
2022-11-04T20:36:32.100Z,4.82
2022-11-04T20:39:00.211Z,5.07
2022-11-04T20:41:30.302Z,4.97
2022-11-04T20:43:56.902Z,4.68
2022-11-04T20:46:25.951Z,6.95
2022-11-04T20:48:52.824Z,5.20
2022-11-04T20:51:24.595Z,3.65
2022-11-04T20:53:56.026Z,3.40
2022-11-04T20:56:26.113Z,3.97
2022-11-04T20:58:58.985Z,4.38
2022-11-04T21:01:30.269Z,4.18
2022-11-04T21:04:01.073Z,4.35
2022-11-04T21:06:28.195Z,5.00
2022-11-04T21:08:54.789Z,5.25
2022-11-04T21:11:21.354Z,5.03
2022-11-04T21:13:47.863Z,4.53
2022-11-04T21:16:15.122Z,4.10
2022-11-04T21:18:41.502Z,4.57
2022-11-04T21:21:09.237Z,4.65
2022-11-04T21:23:35.731Z,4.28
2022-11-04T21:26:08.213Z,4.40
2022-11-04T21:28:34.660Z,3.80
2022-11-04T21:31:09.868Z,4.20
2022-11-04T21:33:39.500Z,4.00
2022-11-04T21:36:08.430Z,4.28
2022-11-04T21:38:35.206Z,4.05
2022-11-04T21:41:10.785Z,3.42
2022-11-04T21:43:37.212Z,3.38
2022-11-04T21:46:08.674Z,3.78
2022-11-04T21:48:36.554Z,3.67
2022-11-04T21:51:07.977Z,3.45
2022-11-04T21:53:34.539Z,3.30
2022-11-04T21:56:05.773Z,3.75
2022-11-04T21:58:32.820Z,3.20
2022-11-04T22:00:59.314Z,8.23
2022-11-04T22:03:28.357Z,7.13
2022-11-04T22:06:04.228Z,5.80
2022-11-04T22:08:31.637Z,5.32
2022-11-04T22:11:11.178Z,6.03
2022-11-04T22:13:37.652Z,5.55
2022-11-04T22:16:15.875Z,4.30
2022-11-04T22:18:42.792Z,3.47
2022-11-04T22:21:13.200Z,3.20
2022-11-04T22:23:40.290Z,3.42
2022-11-04T22:26:10.248Z,4.28
2022-11-04T22:28:36.729Z,3.95
2022-11-04T22:31:08.993Z,4.25
2022-11-04T22:33:36.172Z,3.53
2022-11-04T22:36:02.708Z,3.60
2022-11-04T22:38:30.638Z,3.58
2022-11-04T22:40:58.155Z,3.15
2022-11-04T22:43:25.759Z,3.47
2022-11-04T22:45:54.155Z,3.42
2022-11-04T22:48:21.078Z,3.30
2022-11-04T22:50:54.941Z,3.83
2022-11-04T22:53:21.507Z,3.70
2022-11-04T22:55:47.921Z,4.82
2022-11-04T22:58:14.329Z,5.75
2022-11-04T23:00:40.828Z,5.72
2022-11-04T23:03:07.443Z,5.82
2022-11-04T23:05:34.287Z,5.43
2022-11-04T23:08:01.083Z,6.25
2022-11-04T23:10:47.119Z,5.18
2022-11-04T23:13:32.944Z,6.00
2022-11-04T23:16:18.383Z,5.40
2022-11-04T23:18:47.705Z,5.50
2022-11-04T23:21:35.348Z,5.30
2022-11-04T23:24:20.723Z,5.35
2022-11-04T23:26:47.699Z,5.20
2022-11-04T23:29:34.358Z,5.15
2022-11-04T23:32:00.826Z,5.22
2022-11-04T23:34:46.515Z,4.60
2022-11-04T23:37:13.670Z,4.90
2022-11-04T23:39:50.479Z,4.82
2022-11-04T23:42:22.767Z,6.15
2022-11-04T23:45:10.441Z,5.93
2022-11-04T23:47:58.251Z,5.45
2022-11-04T23:50:45.116Z,5.13
2022-11-04T23:53:32.558Z,4.85
2022-11-04T23:56:18.014Z,4.28
2022-11-04T23:59:02.832Z,4.90
